»·PEaware :: N101UD KGCN-KVGT

N101UD :: KGCN-KVGT

FLIGHT INFORMATION

Flight Status: Arrived
Operator: Privately registered:
United States
More flights under this callsign
Pilot: Anonymous 16342 (16342)
Aircraft: BOMBARDIER BD-100 CHALLENGER 300
(CL30)
More flights by this aircraft type
Origin: KGCN Grand Canyon Natl Park
United States
Destination: KVGT North Las Vegas
United States
More flights between these airports :: More routes between these airports
Route: PARKS4 PGS KADDY2
File this flight plan on PilotEdge
Remarks:
Altitude:
(Current/Filed)
22,000ft
Speed:
(Current/Filed)
480kts
Departed: 24-Aug-18 07:41 AM
Arrived: 24-Aug-18 08:18 AM
Distance/Time
Traveled:
148nm/0:37
Distance/Time
To Go:
Arrived

Flight Plot

Page will automatically refresh every two minutes.

Flight plan parsing failed; only flown route is shown


Map Options




Map Legend


Flown Route
Filed Route
Departure Airport
Arrival Airport
Navaid (VOR, NDB)
Fix

Horizontal Profiles

Position Reports

Time Latitude Longitude Heading Altitude Ground
Speed
24-Aug-18 07:21 35.959640 -112.136414 220 6608ft 0kts
24-Aug-18 07:22 35.959640 -112.136414 220 6608ft 0kts
24-Aug-18 07:23 35.959640 -112.136414 220 6608ft 0kts
24-Aug-18 07:24 35.959640 -112.136414 220 6608ft 0kts
24-Aug-18 07:25 35.959640 -112.136414 220 6608ft 0kts
24-Aug-18 07:26 35.959640 -112.136414 220 6608ft 0kts
24-Aug-18 07:27 35.959640 -112.136414 220 6608ft 0kts
24-Aug-18 07:28 35.959640 -112.136414 220 6608ft 0kts
24-Aug-18 07:29 35.959640 -112.136414 220 6608ft 0kts
24-Aug-18 07:30 35.959640 -112.136414 220 6608ft 0kts
24-Aug-18 07:31 35.959640 -112.136414 220 6608ft 0kts
24-Aug-18 07:32 35.959640 -112.136414 220 6608ft 0kts
24-Aug-18 07:33 35.959640 -112.136414 220 6608ft 0kts
24-Aug-18 07:34 35.959640 -112.136414 220 6608ft 0kts
24-Aug-18 07:35 35.959640 -112.136414 220 6608ft 0kts
24-Aug-18 07:36 35.959640 -112.136414 220 6608ft 0kts
24-Aug-18 07:37 35.960293 -112.136726 42 6608ft 16kts
24-Aug-18 07:38 35.961021 -112.136257 327 6608ft 0kts
24-Aug-18 07:39 35.961021 -112.136257 327 6608ft 0kts
24-Aug-18 07:40 35.961021 -112.136257 327 6608ft 0kts
24-Aug-18 07:41 35.961021 -112.136257 327 6608ft 0kts
24-Aug-18 07:42 35.946465 -112.153186 221 6853ft 172kts
24-Aug-18 07:43 35.909952 -112.192713 245 9075ft 179kts
24-Aug-18 07:44 35.908211 -112.259722 273 10033ft 233kts
24-Aug-18 07:45 35.910641 -112.348148 255 10013ft 281kts
24-Aug-18 07:46 35.887945 -112.444273 254 10013ft 287kts
24-Aug-18 07:47 35.866297 -112.534159 253 10158ft 273kts
24-Aug-18 07:48 35.845425 -112.625844 255 15105ft 292kts
24-Aug-18 07:49 35.823977 -112.720997 253 19313ft 306kts
24-Aug-18 07:50 35.799624 -112.824721 252 22328ft 344kts
24-Aug-18 07:51 35.770252 -112.947604 252 22331ft 391kts
24-Aug-18 07:52 35.738887 -113.077582 251 22307ft 400kts
24-Aug-18 07:53 35.706663 -113.210191 251 22183ft 406kts
24-Aug-18 07:54 35.674184 -113.343188 251 22099ft 404kts
24-Aug-18 07:55 35.642053 -113.474062 251 22099ft 399kts
24-Aug-18 07:56 35.636817 -113.608719 275 22035ft 399kts
24-Aug-18 07:57 35.651625 -113.726599 276 21102ft 369kts
24-Aug-18 07:58 35.668201 -113.847790 276 19706ft 357kts
24-Aug-18 07:59 35.684843 -113.967271 276 17914ft 352kts
24-Aug-18 08:00 35.701183 -114.084544 277 16115ft 343kts
24-Aug-18 08:01 35.716921 -114.198096 277 14318ft 332kts
24-Aug-18 08:02 35.732020 -114.307756 277 12515ft 319kts
24-Aug-18 08:03 35.747444 -114.412008 290 12021ft 321kts
24-Aug-18 08:04 35.825988 -114.468989 336 12021ft 345kts
24-Aug-18 08:05 35.916076 -114.513309 335 12017ft 352kts
24-Aug-18 08:06 35.982520 -114.590280 312 11034ft 309kts
24-Aug-18 08:07 36.038905 -114.662278 311 10018ft 273kts
24-Aug-18 08:08 36.088082 -114.724899 311 10014ft 240kts
24-Aug-18 08:09 36.132476 -114.780832 311 10007ft 217kts
24-Aug-18 08:10 36.173135 -114.831588 311 10000ft 205kts
24-Aug-18 08:11 36.208821 -114.892887 291 9650ft 231kts
24-Aug-18 08:12 36.233411 -114.966192 291 8283ft 234kts
24-Aug-18 08:13 36.258039 -115.041165 291 7984ft 237kts
24-Aug-18 08:14 36.281230 -115.116857 270 7745ft 226kts
24-Aug-18 08:15 36.282678 -115.191792 279 6574ft 212kts
24-Aug-18 08:16 36.284997 -115.256349 224 5383ft 175kts
24-Aug-18 08:17 36.248390 -115.239369 144 3844ft 145kts
24-Aug-18 08:18 36.220287 -115.209703 133 2405ft 132kts
24-Aug-18 08:19 36.205734 -115.191353 130 2201ft 2kts
24-Aug-18 08:20 36.204694 -115.192206 358 2201ft 9kts
24-Aug-18 08:21 36.204946 -115.192050 60 2201ft 0kts
24-Aug-18 08:22 36.204946 -115.192050 60 2201ft 0kts
24-Aug-18 08:23 36.204946 -115.192050 60 2201ft 0kts
24-Aug-18 08:24 36.204946 -115.192050 60 2201ft 0kts
24-Aug-18 08:25 36.204946 -115.192050 60 2201ft 0kts
24-Aug-18 08:26 36.204946 -115.192050 60 2201ft 0kts
24-Aug-18 08:27 36.204946 -115.192050 60 2201ft 0kts
24-Aug-18 08:28 36.204946 -115.192050 60 2201ft 0kts
24-Aug-18 08:29 36.204946 -115.192050 60 2201ft 0kts
24-Aug-18 08:30 36.204946 -115.192050 60 2201ft 0kts
24-Aug-18 08:31 36.204946 -115.192050 60 2201ft 0kts
24-Aug-18 08:32 36.204946 -115.192050 60 2201ft 0kts

Navigation Log

Ident Type
Flight plan parsing failed, navigation log unavailable